Time;durP1;ratioP1;P1;durP2;ratioP2;P2;SDS_P1;SDS_P2;PMS_P1;PMS_P2;Temp;Humidity;BMP_temperature;BMP_pressure;BME280_temperature;BME280_humidity;BME280_pressure;Samples;Min_cycle;Max_cycle;Signal;HPM_P1;HPM_P2
2022/01/05 00:01:08;;;;;;;44.40;21.90;;;;;;;5.25;72.12;99188.38;5090489;28;20102;-51
2022/01/05 00:03:34;;;;;;;47.95;21.33;;;;;;;5.69;69.67;99194.56;5090209;28;20024;-50
2022/01/05 00:06:00;;;;;;;42.78;20.50;;;;;;;5.25;70.76;99188.38;5090410;28;20051;-48
2022/01/05 00:08:25;;;;;;;43.10;20.17;;;;;;;5.12;71.11;99189.97;5090168;28;20488;-49
2022/01/05 00:10:52;;;;;;;45.28;21.55;;;;;;;4.94;71.56;99199.06;5090323;28;20089;-49
2022/01/05 00:13:18;;;;;;;44.67;21.77;;;;;;;4.79;73.38;99195.59;5090421;28;20044;-50
2022/01/05 00:15:43;;;;;;;43.55;20.70;;;;;;;4.79;73.29;99199.03;5090342;28;20032;-49
2022/01/05 00:18:08;;;;;;;44.47;21.52;;;;;;;4.77;73.79;99198.41;5090268;28;20032;-49
2022/01/05 00:20:34;;;;;;;43.03;21.15;;;;;;;5.27;71.67;99201.34;5089192;28;20399;-52
2022/01/05 00:22:59;;;;;;;36.88;19.50;;;;;;;5.36;70.42;99197.63;5090125;28;20028;-50
2022/01/05 00:25:25;;;;;;;41.20;19.40;;;;;;;5.21;70.48;99194.19;5090063;28;20020;-49
2022/01/05 00:27:50;;;;;;;37.75;20.38;;;;;;;5.00;71.37;99198.34;5090503;28;20036;-48
2022/01/05 00:30:16;;;;;;;38.63;20.02;;;;;;;4.77;72.33;99194.97;5090811;28;20039;-50
2022/01/05 00:32:41;;;;;;;43.45;20.67;;;;;;;4.48;73.73;99207.06;5091198;28;20035;-48
2022/01/05 00:35:07;;;;;;;39.90;19.35;;;;;;;4.48;73.23;99205.25;5094517;28;20474;-50
2022/01/05 00:37:32;;;;;;;42.33;20.40;;;;;;;4.79;72.49;99204.31;5094314;28;20415;-48
2022/01/05 00:39:58;;;;;;;40.72;20.38;;;;;;;5.26;71.46;99189.19;5094725;28;20612;-50
2022/01/05 00:42:24;;;;;;;42.85;21.20;;;;;;;5.26;69.54;99163.59;5094555;28;20388;-47
2022/01/05 00:44:49;;;;;;;40.85;19.92;;;;;;;5.40;69.33;99198.91;5094168;28;20036;-51
2022/01/05 00:47:16;;;;;;;52.08;25.67;;;;;;;4.59;72.38;99200.53;5094557;28;20031;-51
2022/01/05 00:49:42;;;;;;;50.58;23.75;;;;;;;4.77;71.03;99197.59;5094515;28;20402;-47
2022/01/05 00:52:07;;;;;;;46.20;24.05;;;;;;;4.64;71.93;99199.00;5094103;28;20482;-49
2022/01/05 00:54:33;;;;;;;43.50;23.17;;;;;;;4.66;71.43;99191.78;5094106;28;20027;-49
2022/01/05 00:56:58;;;;;;;46.30;23.00;;;;;;;4.60;71.85;99199.56;5094273;28;20024;-50
2022/01/05 00:59:24;;;;;;;49.60;24.30;;;;;;;4.48;72.60;99199.16;5094207;28;20024;-49
2022/01/05 01:01:50;;;;;;;48.80;23.05;;;;;;;4.13;73.92;99198.75;5094141;28;20024;-48
2022/01/05 01:04:15;;;;;;;46.05;22.50;;;;;;;4.59;73.26;99193.47;5093955;28;20032;-48
2022/01/05 01:06:41;;;;;;;45.58;22.08;;;;;;;5.19;70.17;99186.44;5094181;28;20089;-48
2022/01/05 01:09:07;;;;;;;43.42;22.35;;;;;;;4.87;69.62;99185.81;5093558;28;20056;-49
2022/01/05 01:11:33;;;;;;;46.03;21.48;;;;;;;4.54;71.70;99180.00;5094020;28;20020;-48
2022/01/05 01:13:58;;;;;;;50.13;23.02;;;;;;;4.48;72.27;99193.91;5093690;28;20341;-49
2022/01/05 01:16:24;;;;;;;46.05;23.67;;;;;;;4.52;72.42;99189.91;5093769;28;20044;-50
2022/01/05 01:18:49;;;;;;;44.55;23.75;;;;;;;4.64;72.93;99180.56;5093706;28;20396;-51
2022/01/05 01:21:14;;;;;;;50.10;24.10;;;;;;;5.31;69.53;99165.69;5093733;28;20081;-50
2022/01/05 01:23:42;;;;;;;47.97;24.40;;;;;;;5.08;68.64;99163.16;5093662;28;20032;-51
2022/01/05 01:26:08;;;;;;;43.95;23.63;;;;;;;4.56;71.04;99164.03;5093915;28;20032;-49
2022/01/05 01:28:33;;;;;;;45.28;24.05;;;;;;;4.55;71.86;99157.94;5093611;28;20503;-50
2022/01/05 01:30:59;;;;;;;47.67;23.67;;;;;;;4.54;72.12;99155.47;5093479;28;20048;-50
2022/01/05 01:33:24;;;;;;;46.10;23.33;;;;;;;4.65;71.89;99158.50;5093264;28;20039;-49
2022/01/05 01:35:50;;;;;;;43.25;22.13;;;;;;;4.83;71.50;99146.78;5093449;28;20131;-50
2022/01/05 01:38:15;;;;;;;42.50;22.10;;;;;;;4.79;71.65;99146.31;5092019;28;20035;-51
2022/01/05 01:40:41;;;;;;;36.80;20.50;;;;;;;5.43;69.36;99155.50;5093000;28;20032;-50
2022/01/05 01:43:06;;;;;;;35.97;18.95;;;;;;;5.05;69.58;99160.91;5092895;28;20035;-50
2022/01/05 01:45:34;;;;;;;37.28;18.52;;;;;;;4.95;69.97;99153.25;5091945;28;20024;-51
2022/01/05 01:47:59;;;;;;;37.65;19.20;;;;;;;4.62;71.70;99156.19;5093191;28;20118;-51
2022/01/05 01:50:25;;;;;;;39.08;19.67;;;;;;;4.63;71.68;99157.84;5093046;28;20031;-50
2022/01/05 01:52:50;;;;;;;42.20;20.52;;;;;;;4.33;72.32;99151.69;5092845;28;20456;-49
2022/01/05 01:55:16;;;;;;;38.25;21.23;;;;;;;4.69;72.61;99158.94;5093119;28;20028;-49
2022/01/05 01:57:42;;;;;;;43.85;22.25;;;;;;;5.35;69.66;99156.44;5091669;28;20077;-49
2022/01/05 02:00:08;;;;;;;49.70;23.85;;;;;;;4.75;70.05;99149.50;5093194;28;20110;-49
2022/01/05 02:02:33;;;;;;;40.78;21.90;;;;;;;4.54;70.67;99143.09;5092967;28;20031;-48
2022/01/05 02:04:59;;;;;;;41.40;21.55;;;;;;;4.42;72.08;99134.81;5093036;28;20028;-47
2022/01/05 02:07:24;;;;;;;45.13;22.45;;;;;;;4.31;72.74;99141.31;5092604;28;20670;-48
2022/01/05 02:09:50;;;;;;;42.72;21.60;;;;;;;4.25;72.69;99141.22;5093076;28;20555;-49
2022/01/05 02:12:15;;;;;;;38.75;20.42;;;;;;;4.19;73.19;99148.03;5092387;28;20454;-49
2022/01/05 02:14:41;;;;;;;43.92;21.63;;;;;;;4.31;73.56;99143.16;5092646;28;20024;-48
2022/01/05 02:17:17;;;;;;;42.92;21.23;;;;;;;4.94;71.12;99133.16;5092893;28;20028;-48
2022/01/05 02:19:42;;;;;;;33.08;17.83;;;;;;;4.59;71.12;99135.50;5092380;28;20031;-50
2022/01/05 02:22:08;;;;;;;35.75;18.85;;;;;;;4.44;71.81;99138.09;5092384;28;20023;-47
2022/01/05 02:24:33;;;;;;;35.35;17.13;;;;;;;4.21;72.80;99129.41;5092408;28;20028;-48
2022/01/05 02:26:58;;;;;;;34.03;17.33;;;;;;;4.35;72.77;99133.88;5091667;28;20032;-49
2022/01/05 02:29:24;;;;;;;32.67;16.20;;;;;;;4.36;72.44;99138.19;5092239;28;20399;-48
2022/01/05 02:31:50;;;;;;;30.17;16.38;;;;;;;4.07;73.72;99134.47;5092591;28;20020;-48
2022/01/05 02:34:16;;;;;;;31.13;17.42;;;;;;;4.54;72.70;99145.75;5092202;28;20051;-49
2022/01/05 02:36:41;;;;;;;33.47;16.33;;;;;;;4.73;71.27;99151.50;5092388;28;20024;-48
2022/01/05 02:39:07;;;;;;;33.85;16.55;;;;;;;4.62;70.11;99142.22;5092238;28;20085;-48
2022/01/05 02:41:32;;;;;;;30.73;16.30;;;;;;;4.31;71.40;99138.69;5092308;28;20031;-50
2022/01/05 02:43:58;;;;;;;35.25;17.65;;;;;;;4.24;72.87;99144.84;5092030;28;20028;-49
2022/01/05 02:46:23;;;;;;;32.05;17.52;;;;;;;4.36;71.80;99153.97;5092026;28;20028;-48
2022/01/05 02:48:50;;;;;;;41.00;20.08;;;;;;;4.17;71.95;99144.75;5091271;28;20024;-48
2022/01/05 02:51:16;;;;;;;34.92;18.30;;;;;;;4.05;72.26;99152.22;5092200;28;20452;-50
2022/01/05 02:53:42;;;;;;;37.90;19.58;;;;;;;3.97;72.63;99138.31;5091843;28;20031;-49
2022/01/05 02:56:07;;;;;;;37.67;18.70;;;;;;;3.54;74.12;99133.44;5091817;28;20035;-50
2022/01/05 02:58:33;;;;;;;38.55;19.02;;;;;;;3.73;74.06;99126.94;5091752;28;20051;-49
2022/01/05 03:00:58;;;;;;;36.75;18.83;;;;;;;3.71;74.46;99132.41;5091923;28;20028;-49
2022/01/05 03:03:24;;;;;;;39.90;19.17;;;;;;;3.46;75.23;99131.69;5091687;28;20024;-48
2022/01/05 03:05:49;;;;;;;39.58;18.75;;;;;;;3.49;75.24;99126.09;5091372;28;20384;-49
2022/01/05 03:08:15;;;;;;;38.28;19.17;;;;;;;3.71;74.49;99135.03;5091625;28;20063;-49
2022/01/05 03:10:40;;;;;;;36.38;19.85;;;;;;;3.58;75.06;99133.94;5091659;28;20434;-48
2022/01/05 03:13:07;;;;;;;40.60;20.55;;;;;;;3.97;73.09;99127.78;5091451;28;20031;-50
2022/01/05 03:15:35;;;;;;;38.60;19.48;;;;;;;4.51;70.43;99130.28;5069706;28;20036;-48
2022/01/05 03:18:02;;;;;;;39.22;19.52;;;;;;;4.11;70.84;99127.84;5071472;28;20052;-49
2022/01/05 03:20:29;;;;;;;36.13;18.63;;;;;;;3.50;72.79;99130.38;5071251;28;20044;-48
2022/01/05 03:22:55;;;;;;;37.67;19.38;;;;;;;3.39;73.61;99125.50;5071241;28;20134;-48
2022/01/05 03:25:20;;;;;;;34.30;19.27;;;;;;;3.22;74.61;99113.38;5071184;28;20537;-51
2022/01/05 03:27:47;;;;;;;39.72;20.35;;;;;;;3.60;73.68;99105.63;5071249;28;20078;-48
2022/01/05 03:30:13;;;;;;;38.53;19.08;;;;;;;4.16;71.04;99106.22;5072212;28;20064;-48
2022/01/05 03:32:55;;;;;;;35.75;18.13;;;;;;;3.78;72.25;99103.53;5091820;28;20085;-48
2022/01/05 03:35:21;;;;;;;33.35;18.35;;;;;;;3.67;72.37;99107.38;5091407;28;20031;-48
2022/01/05 03:37:46;;;;;;;41.13;19.33;;;;;;;3.30;74.58;99114.19;5091403;28;20039;-51
2022/01/05 03:40:12;;;;;;;38.10;18.85;;;;;;;3.22;74.43;99113.38;5091720;28;20028;-51
2022/01/05 03:42:37;;;;;;;42.38;19.42;;;;;;;3.34;74.22;99109.41;5091436;28;20024;-49
2022/01/05 03:45:03;;;;;;;37.35;18.85;;;;;;;3.32;74.75;99111.38;5091390;28;20032;-50
2022/01/05 03:47:28;;;;;;;44.25;20.67;;;;;;;3.39;74.46;99103.63;5091195;28;20035;-50
2022/01/05 03:49:54;;;;;;;33.75;18.38;;;;;;;3.42;74.87;99098.03;5090140;28;20044;-49
2022/01/05 03:52:19;;;;;;;99.68;44.65;;;;;;;3.69;73.99;99096.69;5091409;28;20028;-49
2022/01/05 03:54:45;;;;;;;99.55;43.13;;;;;;;3.62;74.35;99106.31;5091156;28;20085;-50
2022/01/05 03:57:10;;;;;;;112.63;47.05;;;;;;;3.31;75.20;99093.97;5091501;28;20035;-49
2022/01/05 03:59:36;;;;;;;78.28;34.40;;;;;;;3.32;75.96;99098.25;5091135;28;20502;-51
2022/01/05 04:02:01;;;;;;;40.35;17.10;;;;;;;3.40;76.02;99095.56;5091259;28;20028;-50
2022/01/05 04:04:27;;;;;;;29.15;15.90;;;;;;;3.19;76.71;99088.28;5090551;28;20401;-48
2022/01/05 04:06:52;;;;;;;30.92;15.27;;;;;;;3.36;76.07;99090.81;5090936;28;20024;-48
2022/01/05 04:09:18;;;;;;;28.55;15.07;;;;;;;3.06;76.84;99094.06;5093990;28;20096;-49
2022/01/05 04:11:43;;;;;;;34.20;15.50;;;;;;;3.26;76.39;99101.56;5095097;28;20020;-49
2022/01/05 04:14:10;;;;;;;25.08;14.07;;;;;;;3.26;76.25;99112.09;5095118;28;20027;-48
2022/01/05 04:16:35;;;;;;;32.35;15.50;;;;;;;3.26;76.62;99107.63;5094665;28;20032;-50
2022/01/05 04:19:01;;;;;;;28.80;15.63;;;;;;;3.30;75.95;99087.88;5094962;28;20028;-51
2022/01/05 04:21:26;;;;;;;32.38;16.08;;;;;;;3.09;76.75;99098.19;5095244;28;20032;-49
2022/01/05 04:23:52;;;;;;;31.70;16.10;;;;;;;3.38;76.34;99108.06;5094832;28;20453;-51
2022/01/05 04:26:18;;;;;;;31.83;16.05;;;;;;;3.37;74.98;99102.97;5094981;28;20103;-51
2022/01/05 04:28:44;;;;;;;32.67;17.73;;;;;;;2.88;76.13;99102.19;5094851;28;20082;-47
2022/01/05 04:31:09;;;;;;;31.15;16.92;;;;;;;2.57;77.87;99101.28;5094104;28;20028;-49
2022/01/05 04:33:39;;;;;;;34.58;17.45;;;;;;;2.85;77.08;99106.97;5092729;28;20111;-50
2022/01/05 04:36:05;;;;;;;36.47;16.55;;;;;;;3.01;76.76;99106.09;5091857;28;20089;-49
2022/01/05 04:38:30;;;;;;;35.83;15.70;;;;;;;2.89;77.34;99098.59;5093339;28;20027;-51
2022/01/05 04:40:56;;;;;;;31.38;16.13;;;;;;;2.72;78.41;99104.88;5093666;28;20043;-50
2022/01/05 04:43:21;;;;;;;32.83;16.13;;;;;;;3.07;76.52;99114.13;5094116;28;20453;-49
2022/01/05 04:45:48;;;;;;;32.45;15.15;;;;;;;3.02;76.91;99113.81;5094013;28;20038;-49
2022/01/05 04:48:13;;;;;;;29.45;14.82;;;;;;;3.27;76.16;99106.63;5094239;28;20039;-47
2022/01/05 04:50:39;;;;;;;32.83;15.90;;;;;;;2.94;76.96;99105.97;5094347;28;20028;-50
2022/01/05 04:53:04;;;;;;;29.42;15.38;;;;;;;3.08;76.56;99121.00;5094104;28;20032;-49
2022/01/05 04:55:30;;;;;;;38.20;18.50;;;;;;;3.00;76.58;99121.03;5093563;28;20024;-48
2022/01/05 04:57:55;;;;;;;61.20;31.42;;;;;;;2.87;76.91;99123.38;5093396;28;20057;-48
2022/01/05 05:00:21;;;;;;;86.80;40.28;;;;;;;2.88;77.19;99122.41;5093953;28;20486;-48
2022/01/05 05:02:48;;;;;;;64.53;30.70;;;;;;;2.99;76.88;99129.09;5093667;28;20411;-48
2022/01/05 05:05:14;;;;;;;35.83;17.80;;;;;;;2.66;77.73;99135.25;5093859;28;20034;-49
2022/01/05 05:07:39;;;;;;;30.95;15.73;;;;;;;2.57;78.05;99127.56;5094149;28;20048;-49
2022/01/05 05:10:05;;;;;;;35.60;17.30;;;;;;;2.69;78.04;99134.13;5093772;28;20365;-49
2022/01/05 05:12:30;;;;;;;33.10;15.50;;;;;;;2.65;77.72;99125.75;5093549;28;20205;-50
2022/01/05 05:14:56;;;;;;;29.40;14.85;;;;;;;2.58;78.38;99124.78;5093483;28;20436;-48
2022/01/05 05:17:21;;;;;;;33.25;16.27;;;;;;;2.45;78.78;99127.91;5093591;28;20035;-49
2022/01/05 05:19:46;;;;;;;40.25;19.88;;;;;;;2.33;78.46;99129.25;5092267;28;20073;-49
2022/01/05 05:22:12;;;;;;;39.63;17.65;;;;;;;2.61;78.40;99123.59;5093244;28;20028;-50
2022/01/05 05:24:37;;;;;;;38.63;18.20;;;;;;;2.90;76.65;99117.81;5093373;28;20063;-49
2022/01/05 05:27:03;;;;;;;36.53;19.52;;;;;;;2.65;78.19;99117.88;5092796;28;20107;-49
2022/01/05 05:29:29;;;;;;;38.47;19.42;;;;;;;2.46;77.66;99128.75;5092201;28;20020;-52
2022/01/05 05:31:54;;;;;;;39.92;19.67;;;;;;;2.47;79.56;99125.09;5092507;28;20534;-52
2022/01/05 05:34:19;;;;;;;37.92;18.40;;;;;;;2.95;78.11;99128.59;5078647;28;20017;-51
2022/01/05 05:36:45;;;;;;;37.42;18.30;;;;;;;2.85;76.12;99133.25;5080641;28;20029;-48
2022/01/05 05:39:10;;;;;;;35.65;19.00;;;;;;;2.69;77.69;99134.94;5116453;27;20384;-47
2022/01/05 05:41:37;;;;;;;38.20;19.42;;;;;;;2.46;78.27;99144.50;5092031;28;20036;-51
2022/01/05 05:44:02;;;;;;;41.03;20.58;;;;;;;2.50;77.08;99145.81;5091490;28;20114;-51
2022/01/05 05:46:28;;;;;;;42.58;20.10;;;;;;;2.37;77.65;99146.31;5091980;28;20042;-48
2022/01/05 05:48:53;;;;;;;39.85;19.60;;;;;;;2.24;78.35;99151.22;5091953;28;20020;-48
2022/01/05 05:51:19;;;;;;;40.72;20.48;;;;;;;2.41;78.27;99152.84;5091719;28;20020;-48
2022/01/05 05:53:44;;;;;;;38.13;21.15;;;;;;;2.53;78.24;99150.72;5091020;28;20020;-49
2022/01/05 05:56:10;;;;;;;42.97;21.02;;;;;;;2.55;77.81;99151.34;5089887;28;20163;-50
2022/01/05 05:58:35;;;;;;;39.80;19.88;;;;;;;2.41;78.50;99158.09;5090256;28;20035;-48
2022/01/05 06:01:00;;;;;;;43.30;20.80;;;;;;;2.46;78.70;99161.06;5090906;28;20031;-48
2022/01/05 06:03:26;;;;;;;44.28;22.77;;;;;;;2.64;79.88;99167.94;5091500;28;20020;-51
2022/01/05 06:05:51;;;;;;;54.75;23.15;;;;;;;2.79;81.65;99170.72;5091821;28;20016;-50
2022/01/05 06:08:17;;;;;;;49.10;21.92;;;;;;;2.83;77.94;99172.03;5090992;28;20055;-49
2022/01/05 06:10:42;;;;;;;46.15;21.95;;;;;;;2.74;78.85;99174.66;5092236;28;20028;-49
2022/01/05 06:13:08;;;;;;;38.83;20.50;;;;;;;2.96;78.19;99174.13;5091783;28;20425;-51
2022/01/05 06:15:33;;;;;;;37.90;18.15;;;;;;;3.62;76.42;99178.16;5091912;28;20456;-51
2022/01/05 06:17:59;;;;;;;53.58;25.25;;;;;;;3.35;78.43;99184.69;5091580;28;20043;-50
2022/01/05 06:20:24;;;;;;;82.38;41.05;;;;;;;3.40;78.67;99179.72;5090914;28;20027;-51
2022/01/05 06:22:50;;;;;;;39.03;20.13;;;;;;;3.70;75.53;99187.81;5091751;28;20024;-50
2022/01/05 06:25:15;;;;;;;40.10;20.50;;;;;;;3.92;74.19;99181.78;5091652;28;20023;-50
2022/01/05 06:27:41;;;;;;;44.63;22.13;;;;;;;4.11;73.42;99179.66;5091063;28;20470;-48
2022/01/05 06:30:09;;;;;;;31.58;16.35;;;;;;;4.21;72.71;99182.09;5091356;28;20031;-50
2022/01/05 06:32:34;;;;;;;31.20;15.75;;;;;;;4.38;72.96;99186.22;5089604;28;20198;-51
2022/01/05 06:35:03;;;;;;;36.92;17.30;;;;;;;4.27;73.51;99192.72;5090193;28;20092;-52
2022/01/05 06:37:29;;;;;;;30.90;15.40;;;;;;;4.30;74.11;99202.94;5091595;28;20028;-51
2022/01/05 06:39:54;;;;;;;38.55;16.70;;;;;;;5.09;71.66;99210.44;5091454;28;20035;-49
2022/01/05 06:42:20;;;;;;;34.03;16.60;;;;;;;5.68;69.06;99204.31;5091180;28;20024;-51
2022/01/05 06:44:45;;;;;;;35.58;17.92;;;;;;;5.77;67.46;99198.94;5091163;28;20060;-48
2022/01/05 06:47:11;;;;;;;32.22;17.33;;;;;;;5.47;68.79;99199.00;5090891;28;20047;-50
2022/01/05 06:49:36;;;;;;;43.35;20.02;;;;;;;5.70;67.30;99201.50;5090687;28;20032;-52
2022/01/05 06:52:02;;;;;;;61.50;29.45;;;;;;;5.63;67.91;99197.97;5091065;28;20024;-51
2022/01/05 06:54:29;;;;;;;80.75;40.65;;;;;;;6.03;66.65;99209.81;5091082;28;20033;-52
2022/01/05 06:56:55;;;;;;;48.50;22.05;;;;;;;5.90;66.31;99208.84;5090903;28;20554;-48
2022/01/05 06:59:20;;;;;;;43.63;20.38;;;;;;;6.04;66.10;99208.03;5090708;28;20076;-50
2022/01/05 07:01:46;;;;;;;37.05;17.23;;;;;;;6.42;65.53;99215.72;5090865;28;20028;-51
2022/01/05 07:04:11;;;;;;;65.00;34.33;;;;;;;6.27;65.79;99221.06;5090753;28;20039;-50
2022/01/05 07:06:37;;;;;;;41.17;20.95;;;;;;;6.25;65.29;99213.31;5090899;28;20044;-50
2022/01/05 07:09:02;;;;;;;36.03;18.13;;;;;;;6.37;65.98;99224.19;5090462;28;20498;-50
2022/01/05 07:11:28;;;;;;;25.00;14.45;;;;;;;6.73;65.91;99218.00;5090576;28;20421;-50
2022/01/05 07:13:53;;;;;;;25.42;14.95;;;;;;;7.05;65.31;99231.69;5090823;28;20089;-49
2022/01/05 07:16:19;;;;;;;35.78;15.13;;;;;;;7.53;63.58;99223.00;5090661;28;20024;-50
2022/01/05 07:18:44;;;;;;;28.27;15.15;;;;;;;7.63;63.38;99220.81;5090571;28;20032;-49
2022/01/05 07:21:10;;;;;;;27.27;14.60;;;;;;;7.63;64.00;99213.69;5090674;28;20135;-48
2022/01/05 07:23:35;;;;;;;26.38;14.85;;;;;;;8.03;62.10;99207.69;5090555;28;20469;-50
2022/01/05 07:26:00;;;;;;;26.23;14.25;;;;;;;7.98;63.49;99203.00;5089905;28;20096;-52
2022/01/05 07:28:26;;;;;;;26.88;13.88;;;;;;;8.39;65.47;99207.34;5090452;28;20035;-48
2022/01/05 07:30:51;;;;;;;26.23;14.80;;;;;;;8.39;61.33;99214.50;5090529;28;20039;-49
2022/01/05 07:33:17;;;;;;;27.90;15.40;;;;;;;8.41;61.03;99205.38;5090496;28;20036;-50
2022/01/05 07:35:42;;;;;;;27.95;15.32;;;;;;;8.50;61.01;99208.63;5090656;28;20628;-50
2022/01/05 07:38:08;;;;;;;24.33;15.15;;;;;;;8.78;60.61;99213.75;5090439;28;20028;-49
2022/01/05 07:40:33;;;;;;;25.27;15.55;;;;;;;9.26;60.61;99209.19;5090571;28;20106;-51
2022/01/05 07:42:58;;;;;;;27.48;15.63;;;;;;;9.96;57.95;99209.38;5091129;28;20464;-49
2022/01/05 07:45:24;;;;;;;28.48;15.65;;;;;;;9.84;58.11;99216.34;5094150;28;20024;-48
2022/01/05 07:47:49;;;;;;;31.17;15.50;;;;;;;9.50;58.83;99210.34;5093938;28;20089;-50
2022/01/05 07:50:15;;;;;;;28.95;15.38;;;;;;;9.56;58.81;99207.69;5093625;28;20036;-49
2022/01/05 07:52:42;;;;;;;25.83;14.23;;;;;;;9.59;58.56;99204.63;5093733;28;20028;-48
2022/01/05 07:55:08;;;;;;;26.80;13.80;;;;;;;9.67;58.66;99200.91;5093686;28;20024;-50
2022/01/05 07:57:34;;;;;;;23.98;13.20;;;;;;;9.77;58.88;99213.75;5093546;28;20096;-49
2022/01/05 07:59:59;;;;;;;24.98;12.82;;;;;;;9.53;59.03;99207.28;5093514;28;20085;-51
2022/01/05 08:02:25;;;;;;;21.55;12.30;;;;;;;9.70;59.03;99212.94;5093309;28;20028;-50
2022/01/05 08:04:50;;;;;;;24.33;12.43;;;;;;;9.93;57.57;99218.56;5093565;28;20488;-48
2022/01/05 08:07:16;;;;;;;23.23;13.40;;;;;;;10.11;57.06;99214.38;5093193;28;20036;-50
2022/01/05 08:09:41;;;;;;;19.52;12.68;;;;;;;9.91;56.71;99193.22;5093581;28;20030;-49
2022/01/05 08:12:08;;;;;;;87.65;44.75;;;;;;;10.43;55.47;99220.53;5093288;28;20110;-48
2022/01/05 08:14:33;;;;;;;38.60;21.10;;;;;;;10.40;55.63;99230.81;5093536;28;20093;-49
2022/01/05 08:16:59;;;;;;;21.08;13.02;;;;;;;10.33;55.51;99223.69;5092979;28;20452;-51
2022/01/05 08:19:24;;;;;;;21.00;13.05;;;;;;;10.43;56.12;99217.09;5092891;28;20035;-48
2022/01/05 08:21:50;;;;;;;20.95;12.30;;;;;;;10.70;55.03;99236.31;5093128;28;20032;-50
2022/01/05 08:24:15;;;;;;;23.13;13.65;;;;;;;10.83;55.00;99232.75;5092973;28;20035;-48
2022/01/05 08:26:40;;;;;;;22.95;12.52;;;;;;;10.83;54.69;99236.22;5092914;28;20036;-48
2022/01/05 08:29:06;;;;;;;20.13;12.98;;;;;;;10.83;55.08;99230.88;5093014;28;20028;-52
2022/01/05 08:31:31;;;;;;;22.38;13.43;;;;;;;10.86;55.58;99225.16;5092505;28;20053;-47
2022/01/05 08:33:59;;;;;;;23.83;13.95;;;;;;;11.08;54.61;99230.06;5092874;28;20020;-50
2022/01/05 08:36:25;;;;;;;22.20;13.95;;;;;;;10.88;55.04;99225.75;5092986;28;20035;-50
2022/01/05 08:38:50;;;;;;;25.20;13.55;;;;;;;10.88;55.61;99225.75;5092775;28;20028;-49
2022/01/05 08:41:16;;;;;;;24.40;13.93;;;;;;;10.87;55.16;99216.13;5092867;28;20077;-50
2022/01/05 08:43:41;;;;;;;22.90;13.20;;;;;;;11.10;54.76;99206.69;5092466;28;20556;-50
2022/01/05 08:46:07;;;;;;;26.45;13.30;;;;;;;11.34;54.16;99205.81;5092764;28;20039;-48
2022/01/05 08:48:32;;;;;;;20.90;13.05;;;;;;;11.37;53.50;99204.59;5092444;28;20100;-49
2022/01/05 08:50:58;;;;;;;21.42;13.15;;;;;;;11.15;55.13;99198.88;5092446;28;20032;-50
2022/01/05 08:53:24;;;;;;;21.35;12.98;;;;;;;11.20;55.06;99193.69;5092425;28;20020;-49
2022/01/05 08:55:50;;;;;;;22.48;12.80;;;;;;;11.09;55.11;99189.91;5092142;28;20451;-48
2022/01/05 08:58:16;;;;;;;20.67;12.32;;;;;;;11.22;54.63;99182.84;5092242;28;20020;-49
2022/01/05 09:01:00;;;;;;;18.02;11.18;;;;;;;11.58;53.94;99179.34;5090870;28;20524;-48
2022/01/05 09:03:25;;;;;;;18.70;11.68;;;;;;;11.70;53.95;99180.22;5092227;28;20024;-48
2022/01/05 09:05:51;;;;;;;19.48;11.85;;;;;;;11.40;54.63;99179.34;5092216;28;20047;-48
2022/01/05 09:08:16;;;;;;;22.33;12.00;;;;;;;11.58;55.74;99182.00;5091833;28;20079;-48
2022/01/05 09:10:42;;;;;;;20.92;11.93;;;;;;;11.57;54.35;99175.03;5092625;28;20085;-48
2022/01/05 09:13:09;;;;;;;18.67;11.93;;;;;;;11.78;56.15;99184.41;5092185;28;20036;-48
2022/01/05 09:15:35;;;;;;;19.35;11.90;;;;;;;11.88;54.35;99176.72;5092560;28;20108;-48
2022/01/05 09:18:01;;;;;;;20.35;12.82;;;;;;;11.92;53.66;99166.44;5092694;28;20102;-47
2022/01/05 09:20:29;;;;;;;24.15;12.07;;;;;;;11.97;54.33;99161.22;5092739;28;20034;-48
2022/01/05 09:22:56;;;;;;;20.85;11.63;;;;;;;12.07;53.97;99164.19;5092902;28;20042;-48
2022/01/05 09:25:23;;;;;;;22.60;12.23;;;;;;;12.19;53.63;99166.88;5092659;28;20031;-48
2022/01/05 09:27:49;;;;;;;19.55;12.00;;;;;;;12.31;52.14;99156.22;5091775;28;20102;-49
2022/01/05 09:30:14;;;;;;;19.17;12.43;;;;;;;12.07;52.84;99153.50;5093009;28;20517;-49
2022/01/05 09:32:40;;;;;;;25.83;13.88;;;;;;;12.17;52.85;99150.28;5093356;28;20049;-48
2022/01/05 09:35:08;;;;;;;23.20;14.20;;;;;;;12.31;51.95;99145.56;5092847;28;20372;-48
2022/01/05 09:37:38;;;;;;;22.77;14.25;;;;;;;12.13;52.04;99133.13;5092708;28;20028;-51
2022/01/05 09:42:48;;;;;;;23.65;13.95;;;;;;;12.19;51.90;99126.88;5092554;28;20027;-47
2022/01/05 09:45:19;;;;;;;22.27;14.90;;;;;;;12.43;51.96;99125.06;5092671;28;20095;-48
2022/01/05 09:47:57;;;;;;;25.40;14.50;;;;;;;12.42;52.38;99110.06;5092269;28;20487;-48
2022/01/05 09:50:22;;;;;;;21.38;13.35;;;;;;;12.51;52.29;99115.91;5092382;28;20024;-51
2022/01/05 09:52:48;;;;;;;24.58;13.50;;;;;;;12.71;51.27;99123.53;5092133;28;20023;-47
2022/01/05 09:55:14;;;;;;;22.10;12.70;;;;;;;12.58;51.03;99113.09;5092438;28;20020;-50
2022/01/05 09:57:41;;;;;;;22.88;12.10;;;;;;;12.62;51.46;99108.91;5092215;28;20016;-50
2022/01/05 10:00:07;;;;;;;17.85;11.80;;;;;;;12.78;51.03;99112.75;5092517;28;20024;-48
2022/01/05 10:02:33;;;;;;;21.15;12.55;;;;;;;12.90;49.92;99114.34;5091892;28;20020;-48
2022/01/05 10:04:58;;;;;;;22.15;12.38;;;;;;;13.10;50.04;99102.50;5091046;28;20027;-51
2022/01/05 10:07:24;;;;;;;20.63;13.40;;;;;;;12.88;50.21;99105.75;5091250;28;20020;-48
2022/01/05 10:09:49;;;;;;;26.92;12.85;;;;;;;12.46;50.95;99095.22;5090845;28;20032;-51
2022/01/05 10:12:15;;;;;;;21.00;12.93;;;;;;;12.60;50.60;99095.00;5090325;28;20395;-51
2022/01/05 10:14:41;;;;;;;22.35;12.60;;;;;;;12.59;50.69;99083.50;5091695;28;20024;-51
2022/01/05 10:17:22;;;;;;;27.63;13.30;;;;;;;12.53;51.01;99087.13;5091584;28;20571;-48
2022/01/05 10:19:53;;;;;;;;;;;;;;;12.83;49.79;99084.31;5092144;28;20103;-47
2022/01/05 10:22:26;;;;;;;;;;;;;;;13.00;48.89;99079.03;5090330;28;20240;-48
2022/01/05 10:24:53;;;;;;;20.30;12.43;;;;;;;12.74;50.36;99083.03;5091517;28;19965;-51
2022/01/05 10:27:23;;;;;;;24.10;12.73;;;;;;;12.87;49.34;99058.75;5091739;28;20566;-48
2022/01/05 10:30:00;;;;;;;26.02;13.23;;;;;;;12.95;49.39;99060.25;5091893;28;20076;-51
2022/01/05 10:32:29;;;;;;;20.92;12.57;;;;;;;13.00;49.13;99055.00;5091281;28;20042;-51
2022/01/05 10:35:04;;;;;;;20.30;11.68;;;;;;;13.41;48.60;99052.38;5091242;28;20102;-48
2022/01/05 10:37:29;;;;;;;25.70;12.25;;;;;;;13.49;47.49;99047.44;5091261;28;20039;-50
2022/01/05 10:40:04;;;;;;;25.50;13.20;;;;;;;13.49;47.79;99044.75;5091284;28;20028;-51
2022/01/05 10:42:31;;;;;;;22.58;12.40;;;;;;;13.30;48.63;99051.34;5091281;28;20028;-49
2022/01/05 10:44:57;;;;;;;23.27;12.73;;;;;;;13.18;48.61;99045.22;5091208;28;20475;-49
2022/01/05 10:47:22;;;;;;;23.52;12.07;;;;;;;13.07;49.14;99042.34;5091394;28;20028;-50
2022/01/05 10:49:48;;;;;;;20.50;12.57;;;;;;;13.10;48.61;99033.06;5091209;28;20104;-49
2022/01/05 10:52:25;;;;;;;24.15;12.63;;;;;;;13.27;48.42;99036.59;5089700;28;20031;-51
2022/01/05 10:54:51;;;;;;;19.48;12.15;;;;;;;13.60;47.75;99035.06;5091447;28;20193;-47
2022/01/05 10:57:16;;;;;;;22.17;12.63;;;;;;;13.41;48.31;99036.34;5091374;28;20108;-49
2022/01/05 10:59:47;;;;;;;21.40;12.95;;;;;;;13.50;48.22;99026.88;5091018;28;20476;-50
2022/01/05 11:02:22;;;;;;;22.05;13.18;;;;;;;13.75;46.66;99031.06;5090879;28;20499;-48
2022/01/05 11:04:49;;;;;;;19.60;11.77;;;;;;;13.56;47.21;99020.56;5090966;28;20030;-50
2022/01/05 11:07:25;;;;;;;18.98;12.23;;;;;;;13.94;47.05;99032.44;5090904;28;20036;-48
2022/01/05 11:09:55;;;;;;;18.98;11.95;;;;;;;13.89;45.70;99022.47;5090736;28;20027;-50
2022/01/05 11:12:20;;;;;;;20.85;11.43;;;;;;;13.81;45.49;99020.19;5090225;28;20062;-47
2022/01/05 11:14:46;;;;;;;21.92;11.50;;;;;;;13.72;45.78;99018.16;5072298;28;20107;-48
2022/01/05 11:17:11;;;;;;;22.58;10.60;;;;;;;13.55;46.81;99018.94;5089831;28;20043;-48
2022/01/05 11:19:37;;;;;;;17.70;10.43;;;;;;;13.80;44.91;99012.41;5071938;28;20035;-49
2022/01/05 11:22:11;;;;;;;18.55;10.20;;;;;;;13.86;45.06;99011.47;5090677;28;20023;-48